Caribe Alliance — WDC9383 — position and weather

sailwx.info

Track history (hours):
 
Tides and Currents Weather Stations Pressure Air Temp Water Temp Dewpoint Dewpoint Depression Visibility Wind Speed Wind Dir Waves Ship Positions

Caribe Alliance

Owner: Gulf Caribe Maritime, Redondo Beach, CA. More information available from US FCC via Universal Licensing System and Coast Guard Vessel Documentation Center.

Last reported at 2015-Sep-02 20:24 UTC. Time now 2015-Sep-03 08:55 UTC.
Position N 33°51' W 118°24'.

Length 19 m; draft 3.3 m.

Type: Port tender. MMSI: 367101530.

Date/timePositionNaut miles runAvg speedWind from/ knotsBaromVisibWave heightAir tempDewpointWater temp
2015-Sep-02 20:24N 33°51' W 118°24'  
2015-Aug-28 16:22N 33°54' W 118°27'  
2015-Aug-25 21:11N 33°51' W 118°24'5 8.4
2015-Aug-25 20:33N 33°55' W 118°27'0 0.1
2015-Aug-25 19:33N 33°55' W 118°27'0 0.1
2015-Aug-25 18:33N 33°55' W 118°27'0 0.3
2015-Aug-25 17:33N 33°55' W 118°27'0 0.0
2015-Aug-25 16:33N 33°55' W 118°27'0 0.0
2015-Aug-25 15:33N 33°55' W 118°27'0 0.0
2015-Aug-25 14:33N 33°55' W 118°27'0 0.0
2015-Aug-25 13:33N 33°55' W 118°27'0 0.0
2015-Aug-25 11:23N 33°55' W 118°27'0 0.0
2015-Aug-25 10:25N 33°55' W 118°27'0 0.0
2015-Aug-25 09:33N 33°55' W 118°27'0 0.0
2015-Aug-25 08:24N 33°55' W 118°27'0 0.0
2015-Aug-25 07:32N 33°55' W 118°27'0 0.0
2015-Aug-25 06:33N 33°55' W 118°27'0 0.0
2015-Aug-25 05:30N 33°55' W 118°27'0 0.0
2015-Aug-25 03:30N 33°55' W 118°27'0 0.0
2015-Aug-25 02:16N 33°55' W 118°27'0 0.0
2015-Aug-24 20:29N 33°55' W 118°27'0 0.0
2015-Aug-24 19:31N 33°55' W 118°27'0 0.0
2015-Aug-24 18:33N 33°55' W 118°27'0 0.4
2015-Aug-24 17:33N 33°55' W 118°27'0 0.1
2015-Aug-24 16:32N 33°55' W 118°27'0 0.3
2015-Aug-24 15:33N 33°55' W 118°27'0 0.1
2015-Aug-24 14:33N 33°55' W 118°27'2 1.8
2015-Aug-24 13:33N 33°53' W 118°26'3 3.3
2015-Aug-24 12:31N 33°51' W 118°24'0 0.0
2015-Aug-24 11:28N 33°51' W 118°24'0 0.0
2015-Aug-24 10:28N 33°51' W 118°24'0 0.0
2015-Aug-24 09:31N 33°51' W 118°24'0 0.0
2015-Aug-24 07:31N 33°51' W 118°24'0 0.0
2015-Aug-24 06:29N 33°51' W 118°24'0 0.0
2015-Aug-24 05:29N 33°51' W 118°24'0 0.0
2015-Aug-24 04:23N 33°51' W 118°24'0 0.0
2015-Aug-24 02:27N 33°51' W 118°24'0 0.0
2015-Aug-24 01:31N 33°51' W 118°24'0 0.0
2015-Aug-23 21:16N 33°51' W 118°24'  
Track history (hours):
 
Tides and Currents Weather Stations Pressure Air Temp Water Temp Dewpoint Dewpoint Depression Visibility Wind Speed Wind Dir Waves Ship Positions

Caribe Alliance

Owner: Gulf Caribe Maritime, Redondo Beach, CA. More information available from US FCC via Universal Licensing System and Coast Guard Vessel Documentation Center.

Last reported at 2015-Sep-02 20:24 UTC. Time now 2015-Sep-03 08:55 UTC.
Position N 33°51' W 118°24'.

Length 19 m; draft 3.3 m.

Type: Port tender. MMSI: 367101530.

Date/timePositionNaut miles runAvg speedWind from/ knotsBaromVisibWave heightAir tempDewpointWater temp
2015-Sep-02 20:24N 33°51' W 118°24'  
2015-Aug-28 16:22N 33°54' W 118°27'  
2015-Aug-25 21:11N 33°51' W 118°24'5 8.4
2015-Aug-25 20:33N 33°55' W 118°27'0 0.1
2015-Aug-25 19:33N 33°55' W 118°27'0 0.1
2015-Aug-25 18:33N 33°55' W 118°27'0 0.3
2015-Aug-25 17:33N 33°55' W 118°27'0 0.0
2015-Aug-25 16:33N 33°55' W 118°27'0 0.0
2015-Aug-25 15:33N 33°55' W 118°27'0 0.0
2015-Aug-25 14:33N 33°55' W 118°27'0 0.0
2015-Aug-25 13:33N 33°55' W 118°27'0 0.0
2015-Aug-25 11:23N 33°55' W 118°27'0 0.0
2015-Aug-25 10:25N 33°55' W 118°27'0 0.0
2015-Aug-25 09:33N 33°55' W 118°27'0 0.0
2015-Aug-25 08:24N 33°55' W 118°27'0 0.0
2015-Aug-25 07:32N 33°55' W 118°27'0 0.0
2015-Aug-25 06:33N 33°55' W 118°27'0 0.0
2015-Aug-25 05:30N 33°55' W 118°27'0 0.0
2015-Aug-25 03:30N 33°55' W 118°27'0 0.0
2015-Aug-25 02:16N 33°55' W 118°27'0 0.0
2015-Aug-24 20:29N 33°55' W 118°27'0 0.0
2015-Aug-24 19:31N 33°55' W 118°27'0 0.0
2015-Aug-24 18:33N 33°55' W 118°27'0 0.4
2015-Aug-24 17:33N 33°55' W 118°27'0 0.1
2015-Aug-24 16:32N 33°55' W 118°27'0 0.3
2015-Aug-24 15:33N 33°55' W 118°27'0 0.1
2015-Aug-24 14:33N 33°55' W 118°27'2 1.8
2015-Aug-24 13:33N 33°53' W 118°26'3 3.3
2015-Aug-24 12:31N 33°51' W 118°24'0 0.0
2015-Aug-24 11:28N 33°51' W 118°24'0 0.0
2015-Aug-24 10:28N 33°51' W 118°24'0 0.0
2015-Aug-24 09:31N 33°51' W 118°24'0 0.0
2015-Aug-24 07:31N 33°51' W 118°24'0 0.0
2015-Aug-24 06:29N 33°51' W 118°24'0 0.0
2015-Aug-24 05:29N 33°51' W 118°24'0 0.0
2015-Aug-24 04:23N 33°51' W 118°24'0 0.0
2015-Aug-24 02:27N 33°51' W 118°24'0 0.0
2015-Aug-24 01:31N 33°51' W 118°24'0 0.0
2015-Aug-23 21:16N 33°51' W 118°24'  

Dump ship's entire track history